Time;durP1;ratioP1;P1;durP2;ratioP2;P2;SDS_P1;SDS_P2;PMS_P1;PMS_P2;Temp;Humidity;BMP_temperature;BMP_pressure;BME280_temperature;BME280_humidity;BME280_pressure;Samples;Min_cycle;Max_cycle;Signal;HPM_P1;HPM_P2
2023/08/20 00:01:27;;;;;;;13.23;11.82;;;25.10;93.00;;;;;;5114640;28;20036;-71
2023/08/20 00:03:53;;;;;;;13.15;11.70;;;25.10;93.00;;;;;;5114876;28;20185;-71
2023/08/20 00:06:20;;;;;;;15.00;11.60;;;25.10;93.10;;;;;;5114867;28;20077;-70
2023/08/20 00:08:46;;;;;;;13.68;10.98;;;25.00;93.10;;;;;;5114994;28;20027;-70
2023/08/20 00:11:12;;;;;;;13.50;11.98;;;25.00;93.20;;;;;;5114813;28;20050;-70
2023/08/20 00:13:38;;;;;;;12.30;10.98;;;25.10;93.30;;;;;;5114331;28;20372;-70
2023/08/20 00:16:04;;;;;;;12.07;10.70;;;25.10;93.20;;;;;;5114854;28;20031;-70
2023/08/20 00:18:30;;;;;;;11.48;10.45;;;25.00;93.20;;;;;;5114606;28;20185;-70
2023/08/20 00:20:56;;;;;;;12.80;11.43;;;24.90;93.70;;;;;;5114633;28;20059;-69
2023/08/20 00:23:22;;;;;;;11.63;10.38;;;24.90;93.70;;;;;;5095806;28;20031;-70
2023/08/20 00:25:48;;;;;;;15.43;11.35;;;24.90;93.80;;;;;;5114431;28;20039;-70
2023/08/20 00:28:14;;;;;;;13.35;11.70;;;24.90;93.80;;;;;;5114418;28;20032;-70
2023/08/20 00:30:40;;;;;;;12.95;10.82;;;24.90;93.80;;;;;;5113732;28;20502;-70
2023/08/20 00:33:05;;;;;;;13.63;10.55;;;24.90;93.80;;;;;;5113595;28;20096;-70
2023/08/20 00:35:31;;;;;;;12.10;10.88;;;24.90;94.00;;;;;;5113903;28;20422;-70
2023/08/20 00:37:57;;;;;;;14.57;11.68;;;24.80;94.00;;;;;;5114102;28;20034;-70
2023/08/20 00:40:23;;;;;;;14.07;10.98;;;24.80;94.00;;;;;;5113797;28;20446;-71
2023/08/20 00:42:49;;;;;;;12.30;11.13;;;24.80;94.20;;;;;;5113951;28;20028;-70
2023/08/20 00:45:16;;;;;;;13.18;11.77;;;24.80;94.10;;;;;;5113989;28;20489;-70
2023/08/20 00:47:42;;;;;;;12.63;11.43;;;24.80;94.30;;;;;;5113659;28;20059;-70
2023/08/20 00:50:08;;;;;;;13.10;11.60;;;24.70;94.40;;;;;;5114258;28;20412;-70
2023/08/20 00:52:35;;;;;;;12.95;11.15;;;24.70;94.50;;;;;;5113947;28;20070;-70
2023/08/20 00:55:10;;;;;;;11.55;10.45;;;24.70;94.60;;;;;;5113981;28;20031;-70
2023/08/20 00:57:40;;;;;;;12.60;11.20;;;24.70;94.70;;;;;;5133498;27;20413;-70
2023/08/20 01:00:09;;;;;;;15.77;11.13;;;24.70;94.70;;;;;;5134234;27;20027;-70
2023/08/20 01:02:39;;;;;;;11.88;10.75;;;24.70;94.90;;;;;;5133532;27;20027;-70
2023/08/20 01:05:08;;;;;;;12.57;11.37;;;24.60;94.70;;;;;;5134327;27;20560;-69
2023/08/20 01:07:46;;;;;;;11.82;10.68;;;24.60;94.80;;;;;;5133849;27;20067;-70
2023/08/20 01:10:23;;;;;;;11.68;10.48;;;24.60;95.10;;;;;;5134357;27;20023;-69
2023/08/20 01:12:51;;;;;;;14.27;11.05;;;24.60;95.20;;;;;;5115467;27;20152;-70
2023/08/20 01:15:17;;;;;;;12.45;11.15;;;24.60;95.30;;;;;;5133829;27;20035;-70
2023/08/20 01:17:45;;;;;;;12.68;11.30;;;24.60;95.30;;;;;;5133357;27;20407;-70
2023/08/20 01:20:13;;;;;;;12.80;11.50;;;24.50;95.40;;;;;;5134133;27;20030;-70
2023/08/20 01:22:59;;;;;;;12.95;11.18;;;24.50;95.50;;;;;;5133603;27;20031;-69
2023/08/20 01:25:30;;;;;;;12.93;11.63;;;24.50;95.50;;;;;;5133657;27;20100;-69
2023/08/20 01:28:25;;;;;;;12.93;11.57;;;24.40;95.60;;;;;;5133902;27;20027;-69
2023/08/20 01:30:52;;;;;;;11.75;10.20;;;24.40;95.70;;;;;;5133549;27;20034;-69
2023/08/20 01:33:19;;;;;;;13.00;11.68;;;24.30;95.90;;;;;;5133528;27;20031;-69
2023/08/20 01:35:45;;;;;;;13.88;11.35;;;24.40;96.00;;;;;;5133458;27;20110;-69
2023/08/20 01:38:10;;;;;;;12.75;11.55;;;24.30;96.10;;;;;;5123215;27;20090;-70
2023/08/20 01:40:36;;;;;;;13.65;11.48;;;24.30;96.30;;;;;;5112836;28;20030;-70
2023/08/20 01:43:02;;;;;;;14.15;11.60;;;24.30;96.10;;;;;;5112876;28;20040;-69
2023/08/20 01:45:27;;;;;;;13.15;11.73;;;24.30;96.20;;;;;;5112691;28;20028;-71
2023/08/20 01:47:53;;;;;;;13.95;11.45;;;24.30;96.40;;;;;;5113114;28;20101;-70
2023/08/20 01:50:19;;;;;;;12.73;11.27;;;24.20;96.70;;;;;;5112710;28;20557;-69
2023/08/20 01:52:44;;;;;;;12.15;10.93;;;24.20;97.00;;;;;;5112525;28;20066;-69
2023/08/20 01:55:13;;;;;;;16.38;12.00;;;24.10;97.10;;;;;;5112847;28;20033;-70
2023/08/20 01:57:39;;;;;;;15.05;12.52;;;24.10;97.10;;;;;;5112763;28;20107;-71
2023/08/20 02:00:06;;;;;;;13.77;11.05;;;24.10;97.40;;;;;;5113133;28;20055;-70
2023/08/20 02:02:32;;;;;;;13.40;12.10;;;24.10;97.50;;;;;;5112641;28;20024;-70
2023/08/20 02:04:58;;;;;;;12.93;11.63;;;24.00;97.60;;;;;;5112927;28;20035;-70
2023/08/20 02:07:23;;;;;;;12.32;11.02;;;24.00;98.00;;;;;;5113105;28;20510;-69
2023/08/20 02:09:49;;;;;;;12.18;10.98;;;24.00;97.90;;;;;;5112627;28;20042;-69
2023/08/20 02:12:15;;;;;;;13.98;11.98;;;23.90;97.90;;;;;;5112983;28;20027;-70
2023/08/20 02:14:40;;;;;;;13.68;11.30;;;23.90;98.10;;;;;;5112674;28;20028;-70
2023/08/20 02:17:07;;;;;;;12.02;10.82;;;23.90;98.10;;;;;;5112931;28;20024;-69
2023/08/20 02:19:32;;;;;;;12.88;11.50;;;23.90;98.10;;;;;;5112568;28;20027;-70
2023/08/20 02:21:58;;;;;;;13.73;11.45;;;23.90;98.10;;;;;;5113136;28;20030;-71
2023/08/20 02:24:24;;;;;;;12.90;11.43;;;23.90;98.20;;;;;;5112810;28;20031;-71
2023/08/20 02:26:49;;;;;;;14.60;11.68;;;23.90;98.30;;;;;;5094272;28;20834;-71
2023/08/20 02:29:15;;;;;;;13.15;11.85;;;23.90;98.30;;;;;;5112586;28;20463;-70
2023/08/20 02:31:41;;;;;;;12.82;11.40;;;23.90;98.30;;;;;;5094160;28;20349;-70
2023/08/20 02:34:06;;;;;;;12.77;11.52;;;23.90;98.20;;;;;;5112934;28;20035;-70
2023/08/20 02:36:32;;;;;;;13.30;11.90;;;23.80;98.30;;;;;;5094249;28;20024;-71
2023/08/20 02:38:57;;;;;;;14.38;11.43;;;23.90;98.30;;;;;;5112485;28;20020;-70
2023/08/20 02:41:23;;;;;;;12.50;11.27;;;23.90;98.20;;;;;;5112810;28;20514;-70
2023/08/20 02:43:49;;;;;;;11.95;10.80;;;23.90;98.10;;;;;;5112255;28;20027;-71
2023/08/20 02:46:14;;;;;;;12.40;11.07;;;23.90;98.10;;;;;;5094698;28;20030;-70
2023/08/20 02:48:40;;;;;;;14.70;11.50;;;23.90;98.10;;;;;;5111962;28;20042;-70
2023/08/20 02:51:06;;;;;;;12.68;11.48;;;23.90;97.90;;;;;;5094258;28;20051;-70
2023/08/20 02:53:32;;;;;;;12.88;11.07;;;23.80;98.10;;;;;;5112471;28;20035;-75
2023/08/20 02:55:57;;;;;;;15.00;11.25;;;23.80;98.10;;;;;;5115623;28;20161;-70
2023/08/20 02:58:23;;;;;;;13.38;11.98;;;23.80;98.40;;;;;;5115986;28;20035;-70
2023/08/20 03:00:48;;;;;;;13.57;12.18;;;23.80;98.20;;;;;;5115817;28;20034;-70
2023/08/20 03:03:14;;;;;;;12.20;11.00;;;23.80;98.30;;;;;;5115919;28;20028;-70
2023/08/20 03:05:40;;;;;;;11.52;10.48;;;23.80;98.30;;;;;;5129835;27;20023;-71
2023/08/20 03:08:06;;;;;;;13.57;11.70;;;23.80;98.30;;;;;;5136579;27;20054;-71
2023/08/20 03:10:32;;;;;;;12.57;11.27;;;23.70;98.10;;;;;;5136590;27;20051;-70
2023/08/20 03:12:59;;;;;;;15.48;11.32;;;23.80;98.20;;;;;;5136211;27;20027;-70
2023/08/20 03:15:25;;;;;;;12.82;11.52;;;23.70;98.50;;;;;;5136420;27;20060;-71
2023/08/20 03:17:50;;;;;;;12.65;11.18;;;23.60;98.60;;;;;;5135808;27;20019;-71
2023/08/20 03:20:16;;;;;;;12.82;11.52;;;23.50;99.00;;;;;;5136094;27;20050;-70
2023/08/20 03:22:42;;;;;;;13.38;11.70;;;23.50;99.10;;;;;;5135714;27;20019;-70
2023/08/20 03:25:07;;;;;;;14.75;12.18;;;23.40;99.60;;;;;;5136026;27;20038;-70
2023/08/20 03:27:34;;;;;;;20.27;12.77;;;23.40;99.70;;;;;;5136316;27;20102;-70
2023/08/20 03:30:00;;;;;;;13.38;11.43;;;23.40;99.90;;;;;;5135602;27;20034;-70
2023/08/20 03:32:25;;;;;;;13.10;11.77;;;23.30;99.90;;;;;;5136180;27;20102;-70
2023/08/20 03:34:53;;;;;;;14.27;12.27;;;23.40;99.90;;;;;;5132207;27;20486;-71
2023/08/20 03:37:18;;;;;;;13.68;12.27;;;23.40;99.90;;;;;;5136272;27;20016;-70
2023/08/20 03:39:44;;;;;;;13.52;12.13;;;23.40;99.90;;;;;;5116973;27;20371;-71
2023/08/20 03:42:10;;;;;;;12.98;11.70;;;23.40;99.90;;;;;;5136023;27;20055;-70
2023/08/20 03:44:35;;;;;;;14.18;11.88;;;23.40;99.90;;;;;;5136101;27;20031;-72
2023/08/20 03:47:01;;;;;;;14.48;12.23;;;23.40;99.90;;;;;;5136152;27;20031;-70
2023/08/20 03:49:27;;;;;;;21.60;11.88;;;23.40;99.90;;;;;;5135650;27;20475;-71
2023/08/20 03:51:52;;;;;;;38.10;13.60;;;23.40;99.90;;;;;;5135358;27;20110;-70
2023/08/20 03:54:18;;;;;;;14.57;12.80;;;23.50;99.90;;;;;;5135884;27;20027;-70
2023/08/20 03:56:44;;;;;;;13.02;11.77;;;23.50;99.80;;;;;;5135037;27;20045;-71
2023/08/20 03:59:09;;;;;;;13.48;12.10;;;23.40;99.70;;;;;;5135412;27;20408;-71
2023/08/20 04:01:36;;;;;;;14.07;12.68;;;23.40;99.70;;;;;;5135207;27;20111;-71
2023/08/20 04:04:03;;;;;;;13.65;12.13;;;23.40;99.70;;;;;;5135211;27;20019;-69
2023/08/20 04:06:29;;;;;;;18.35;12.73;;;23.40;99.60;;;;;;5134323;27;20035;-69
2023/08/20 04:08:54;;;;;;;15.85;11.95;;;23.40;99.60;;;;;;5134835;27;20025;-69
2023/08/20 04:11:20;;;;;;;30.30;12.23;;;23.40;99.70;;;;;;5135440;27;20455;-69
2023/08/20 04:13:45;;;;;;;13.52;11.88;;;23.40;99.70;;;;;;5135046;27;20448;-69
2023/08/20 04:16:11;;;;;;;14.18;11.77;;;23.40;99.60;;;;;;5135679;27;20487;-69
2023/08/20 04:18:37;;;;;;;16.05;12.75;;;23.50;99.50;;;;;;5135031;27;20110;-69
2023/08/20 04:21:02;;;;;;;13.60;12.20;;;23.50;99.50;;;;;;5134769;27;20114;-69
2023/08/20 04:23:28;;;;;;;15.05;11.85;;;23.50;99.40;;;;;;5135267;27;20023;-70
2023/08/20 04:25:53;;;;;;;13.73;11.68;;;23.50;99.40;;;;;;5134276;27;20497;-69
2023/08/20 04:28:19;;;;;;;13.40;12.10;;;23.60;99.30;;;;;;5135159;27;20031;-69
2023/08/20 04:30:45;;;;;;;12.75;11.45;;;23.50;99.10;;;;;;5134684;27;20027;-70
2023/08/20 04:33:10;;;;;;;12.40;11.20;;;23.60;99.20;;;;;;5135067;27;20452;-70
2023/08/20 04:35:36;;;;;;;12.50;11.40;;;23.60;99.10;;;;;;5134686;27;20031;-69
2023/08/20 04:38:02;;;;;;;14.93;12.00;;;23.60;99.10;;;;;;5134467;27;20096;-69
2023/08/20 04:40:28;;;;;;;13.07;11.80;;;23.60;98.90;;;;;;5134971;27;20023;-69
2023/08/20 04:42:53;;;;;;;13.13;11.80;;;23.60;98.90;;;;;;5134060;27;20019;-70
2023/08/20 04:45:19;;;;;;;16.55;13.45;;;23.60;99.00;;;;;;5134466;27;20031;-70
2023/08/20 04:47:46;;;;;;;13.25;11.82;;;23.70;99.00;;;;;;5134320;27;20038;-69
2023/08/20 04:50:13;;;;;;;13.18;11.98;;;23.70;98.90;;;;;;5134592;27;20043;-71
2023/08/20 04:52:39;;;;;;;14.70;12.60;;;23.80;98.90;;;;;;5134239;27;20475;-69
2023/08/20 04:55:07;;;;;;;16.63;11.63;;;23.80;98.30;;;;;;5134123;27;20027;-69
2023/08/20 04:57:32;;;;;;;13.80;12.50;;;23.80;98.50;;;;;;5134534;27;20026;-71
2023/08/20 04:59:58;;;;;;;13.30;11.75;;;23.90;98.40;;;;;;5133753;27;20023;-71
2023/08/20 05:02:23;;;;;;;13.45;11.85;;;23.90;98.40;;;;;;5134126;27;20023;-70
2023/08/20 05:04:49;;;;;;;13.15;11.85;;;23.90;98.20;;;;;;5133593;27;20037;-70
2023/08/20 05:07:15;;;;;;;13.13;11.85;;;24.00;97.90;;;;;;5134335;27;20035;-70
2023/08/20 05:09:41;;;;;;;12.70;11.10;;;24.00;97.80;;;;;;5133740;27;20092;-70
2023/08/20 05:12:07;;;;;;;13.48;12.18;;;24.00;97.60;;;;;;5133569;27;20019;-70
2023/08/20 05:14:32;;;;;;;12.15;10.70;;;24.00;97.50;;;;;;5133875;27;20049;-70
2023/08/20 05:16:58;;;;;;;12.07;10.88;;;24.00;97.50;;;;;;5133543;27;20448;-70
2023/08/20 05:19:24;;;;;;;13.93;12.40;;;24.10;97.30;;;;;;5134059;27;20023;-70
2023/08/20 05:21:49;;;;;;;14.73;11.82;;;24.10;97.10;;;;;;5133386;27;20032;-70
2023/08/20 05:24:15;;;;;;;13.68;11.68;;;24.20;97.10;;;;;;5133973;27;20039;-70
2023/08/20 05:26:41;;;;;;;13.68;11.50;;;24.20;96.90;;;;;;5115716;27;20374;-70
2023/08/20 05:29:06;;;;;;;12.90;11.60;;;24.20;96.60;;;;;;5133682;27;20027;-70
2023/08/20 05:31:32;;;;;;;14.25;11.98;;;24.30;97.00;;;;;;5132557;27;20452;-71
2023/08/20 05:33:58;;;;;;;14.65;11.73;;;24.30;96.90;;;;;;5130921;27;20106;-71
2023/08/20 05:36:23;;;;;;;13.18;11.82;;;24.40;96.50;;;;;;5134009;27;20034;-70
2023/08/20 05:38:49;;;;;;;16.42;11.77;;;24.40;96.40;;;;;;5133539;27;20030;-71
2023/08/20 05:41:15;;;;;;;14.05;12.27;;;24.50;96.60;;;;;;5133752;27;20019;-69
2023/08/20 05:43:41;;;;;;;12.95;11.65;;;24.50;96.40;;;;;;5114991;28;20413;-70
2023/08/20 05:46:06;;;;;;;14.40;12.48;;;24.60;96.20;;;;;;5132997;27;20114;-69
2023/08/20 05:48:32;;;;;;;14.50;12.27;;;24.60;96.20;;;;;;5133692;28;20027;-69
2023/08/20 05:50:57;;;;;;;12.50;11.40;;;24.70;96.20;;;;;;5114707;28;20051;-69
2023/08/20 05:53:23;;;;;;;14.95;11.90;;;24.90;95.90;;;;;;5133794;28;20111;-69
2023/08/20 05:55:49;;;;;;;12.50;11.35;;;25.10;95.30;;;;;;5132881;28;20034;-69
2023/08/20 05:58:15;;;;;;;13.77;11.50;;;25.40;94.60;;;;;;5115506;28;20033;-70
2023/08/20 06:00:41;;;;;;;12.02;10.93;;;25.60;93.70;;;;;;5133931;28;20102;-70
2023/08/20 06:03:07;;;;;;;11.75;10.50;;;25.90;93.50;;;;;;5132897;28;20122;-69
2023/08/20 06:05:33;;;;;;;12.27;10.65;;;26.20;92.40;;;;;;5133495;28;20104;-69
2023/08/20 06:07:59;;;;;;;13.63;10.43;;;26.60;91.10;;;;;;5133111;28;20425;-70
2023/08/20 06:10:25;;;;;;;12.57;10.55;;;27.00;90.00;;;;;;5133326;28;20016;-70
2023/08/20 06:12:50;;;;;;;13.07;9.90;;;27.60;87.90;;;;;;5133087;28;20027;-70
2023/08/20 06:15:16;;;;;;;10.30;9.30;;;28.20;85.30;;;;;;5133485;28;20091;-70
2023/08/20 06:17:42;;;;;;;11.15;9.43;;;28.90;80.50;;;;;;5133521;28;20020;-70
2023/08/20 06:20:08;;;;;;;10.10;8.55;;;29.50;77.40;;;;;;5133057;28;20083;-70
2023/08/20 06:22:34;;;;;;;9.15;8.27;;;29.80;74.40;;;;;;5133300;28;20065;-70
2023/08/20 06:25:00;;;;;;;10.15;8.20;;;29.90;72.90;;;;;;5132875;28;20034;-70
2023/08/20 06:27:26;;;;;;;8.40;7.60;;;30.10;71.50;;;;;;5114971;28;20375;-70
2023/08/20 06:29:51;;;;;;;8.38;7.60;;;30.20;71.10;;;;;;5134023;27;20027;-70
2023/08/20 06:32:17;;;;;;;9.25;8.35;;;30.40;70.40;;;;;;5137317;27;20049;-70
2023/08/20 06:34:43;;;;;;;9.93;8.75;;;30.50;69.90;;;;;;5137016;27;20060;-70
2023/08/20 06:37:08;;;;;;;9.32;8.18;;;30.50;69.20;;;;;;5136761;27;20199;-71
2023/08/20 06:39:34;;;;;;;9.07;8.27;;;30.60;68.60;;;;;;5136930;27;20034;-69
2023/08/20 06:42:00;;;;;;;8.75;7.93;;;30.80;67.20;;;;;;5136344;27;20023;-69
2023/08/20 06:44:26;;;;;;;9.65;7.85;;;30.90;67.90;;;;;;5137069;27;20035;-70
2023/08/20 06:46:51;;;;;;;12.73;8.40;;;31.20;66.60;;;;;;5136338;27;20430;-70
2023/08/20 06:49:17;;;;;;;8.23;7.40;;;31.50;65.50;;;;;;5136371;27;20071;-70
2023/08/20 06:51:42;;;;;;;8.25;6.97;;;31.70;65.40;;;;;;5137305;27;20031;-70
2023/08/20 06:54:08;;;;;;;15.35;6.85;;;32.00;64.10;;;;;;5136152;27;20530;-70
2023/08/20 06:56:34;;;;;;;8.23;7.03;;;32.30;63.80;;;;;;5136385;27;20047;-70
2023/08/20 06:59:03;;;;;;;7.93;7.05;;;32.60;60.90;;;;;;5136249;27;20046;-70
2023/08/20 07:01:28;;;;;;;8.48;7.40;;;33.20;61.10;;;;;;5117945;27;20026;-70
2023/08/20 07:03:54;;;;;;;7.90;6.88;;;33.80;59.00;;;;;;5135950;27;20027;-70
2023/08/20 07:06:20;;;;;;;7.00;6.30;;;34.70;57.20;;;;;;5136702;27;20022;-70
2023/08/20 07:08:45;;;;;;;7.10;6.50;;;35.40;54.80;;;;;;5136762;27;20057;-70
2023/08/20 07:11:11;;;;;;;12.13;6.80;;;35.90;53.40;;;;;;5135964;27;20031;-70
2023/08/20 07:13:37;;;;;;;7.50;6.80;;;36.60;51.90;;;;;;5136411;27;20031;-70
2023/08/20 07:16:03;;;;;;;8.60;6.40;;;37.30;50.00;;;;;;5136208;27;20038;-69
2023/08/20 07:18:28;;;;;;;7.20;6.07;;;38.10;49.00;;;;;;5136504;27;20023;-72
2023/08/20 07:20:55;;;;;;;7.32;6.63;;;38.90;47.60;;;;;;5135802;27;20160;-71
2023/08/20 07:23:21;;;;;;;6.75;5.90;;;39.40;46.40;;;;;;5136418;27;20081;-71
2023/08/20 07:25:48;;;;;;;7.22;6.53;;;40.10;44.80;;;;;;5136376;27;20482;-71
2023/08/20 07:28:14;;;;;;;6.60;5.88;;;40.60;42.90;;;;;;5136132;27;20463;-70
2023/08/20 07:30:39;;;;;;;7.03;6.22;;;41.10;42.70;;;;;;5117819;27;20034;-70
2023/08/20 07:33:06;;;;;;;6.30;5.55;;;41.20;42.10;;;;;;5133731;27;20035;-71
2023/08/20 07:35:32;;;;;;;6.65;6.05;;;41.60;41.00;;;;;;5116458;27;20035;-71
2023/08/20 07:37:57;;;;;;;6.60;5.78;;;42.00;40.40;;;;;;5114818;28;20019;-71
2023/08/20 07:40:26;;;;;;;6.85;6.00;;;42.50;39.80;;;;;;5115222;28;20034;-70
2023/08/20 07:42:51;;;;;;;6.65;5.93;;;43.00;38.80;;;;;;5096987;28;20099;-70
2023/08/20 07:45:17;;;;;;;6.03;5.35;;;43.50;37.70;;;;;;5115026;28;20180;-71
2023/08/20 07:47:43;;;;;;;6.75;5.65;;;43.90;37.60;;;;;;5115428;28;20031;-71
2023/08/20 07:50:08;;;;;;;7.95;5.95;;;44.10;37.30;;;;;;5114711;28;20052;-71
2023/08/20 07:52:34;;;;;;;8.95;5.82;;;44.60;36.30;;;;;;5115305;28;20043;-71
2023/08/20 07:55:00;;;;;;;6.75;6.13;;;44.90;36.30;;;;;;5114943;28;20345;-71
2023/08/20 07:57:25;;;;;;;6.20;5.45;;;45.10;35.30;;;;;;5115301;28;20082;-71
2023/08/20 07:59:51;;;;;;;7.60;5.60;;;45.30;34.70;;;;;;5114893;28;20047;-70
2023/08/20 08:02:18;;;;;;;9.05;5.80;;;45.20;35.00;;;;;;5114945;28;20092;-71
2023/08/20 08:04:43;;;;;;;7.43;5.90;;;45.00;35.30;;;;;;5114765;28;20035;-71
2023/08/20 08:07:11;;;;;;;5.60;5.15;;;45.20;35.10;;;;;;5114600;28;20023;-69
2023/08/20 08:09:36;;;;;;;12.80;6.47;;;45.20;34.50;;;;;;5114988;28;20026;-70
2023/08/20 08:12:02;;;;;;;8.10;6.82;;;45.40;35.10;;;;;;5114478;28;20024;-70
2023/08/20 08:14:28;;;;;;;9.27;7.68;;;45.30;35.20;;;;;;5114795;28;20031;-70
2023/08/20 08:16:54;;;;;;;9.05;6.47;;;45.20;36.00;;;;;;5114781;28;20434;-70
2023/08/20 08:19:20;;;;;;;12.27;7.63;;;45.30;36.80;;;;;;5114335;28;20027;-70
2023/08/20 08:21:46;;;;;;;13.75;6.93;;;45.10;36.10;;;;;;5114638;28;20038;-70
2023/08/20 08:24:13;;;;;;;6.88;6.18;;;45.00;36.60;;;;;;5114096;28;20036;-70
2023/08/20 08:26:40;;;;;;;9.95;6.90;;;44.70;36.20;;;;;;5114729;28;20027;-70
2023/08/20 08:29:06;;;;;;;7.82;6.82;;;44.40;36.20;;;;;;5114190;28;20034;-71
2023/08/20 08:31:33;;;;;;;7.60;6.90;;;44.10;37.20;;;;;;5114560;28;20020;-71
2023/08/20 08:33:58;;;;;;;8.32;6.82;;;43.90;37.50;;;;;;5114395;28;20084;-70
2023/08/20 08:36:27;;;;;;;8.05;7.05;;;43.90;37.80;;;;;;5114404;28;20027;-72
2023/08/20 08:38:54;;;;;;;9.10;6.40;;;43.50;38.50;;;;;;5114468;28;20031;-70
2023/08/20 08:41:25;;;;;;;9.75;7.40;;;43.00;38.10;;;;;;5113852;28;20030;-72
2023/08/20 08:43:51;;;;;;;9.05;7.40;;;42.60;38.70;;;;;;5114333;28;20027;-70
2023/08/20 08:46:17;;;;;;;9.45;7.38;;;41.70;39.40;;;;;;5113775;28;20044;-71
2023/08/20 08:48:45;;;;;;;8.60;7.80;;;41.50;39.10;;;;;;5114208;28;20119;-71
2023/08/20 08:51:13;;;;;;;11.90;8.10;;;41.00;39.60;;;;;;5113677;28;20071;-71
2023/08/20 08:53:41;;;;;;;11.10;7.20;;;40.50;40.10;;;;;;5112602;27;20030;-71
2023/08/20 08:56:07;;;;;;;8.88;7.30;;;40.30;40.90;;;;;;5134102;27;20034;-70
2023/08/20 08:58:33;;;;;;;9.77;7.32;;;39.90;40.10;;;;;;5134548;27;20031;-71
2023/08/20 09:00:59;;;;;;;10.30;7.28;;;39.70;41.40;;;;;;5134237;27;20028;-74
2023/08/20 09:03:25;;;;;;;9.82;7.75;;;39.70;42.00;;;;;;5134524;27;20429;-71
2023/08/20 09:05:57;;;;;;;10.32;7.43;;;39.30;41.90;;;;;;5134004;27;20039;-71
2023/08/20 09:08:32;;;;;;;9.30;7.72;;;39.20;42.00;;;;;;5133824;27;20050;-71
2023/08/20 09:11:00;;;;;;;9.00;7.28;;;38.60;41.70;;;;;;5134206;27;20478;-71
2023/08/20 09:13:46;;;;;;;7.95;6.90;;;38.40;42.40;;;;;;5133953;27;20110;-71
2023/08/20 09:16:12;;;;;;;7.47;6.82;;;38.40;44.00;;;;;;5133046;27;20039;-71
2023/08/20 09:18:46;;;;;;;11.55;7.22;;;38.40;43.60;;;;;;5134174;27;20034;-71
2023/08/20 09:21:13;;;;;;;8.13;7.22;;;38.30;43.60;;;;;;5133719;27;20023;-71
2023/08/20 09:23:39;;;;;;;7.97;7.18;;;37.80;43.00;;;;;;5134104;27;20373;-71
2023/08/20 09:26:06;;;;;;;8.43;6.97;;;37.70;44.90;;;;;;5133289;27;20027;-71
2023/08/20 09:28:42;;;;;;;10.07;7.15;;;37.70;45.30;;;;;;5134260;27;20043;-71
2023/08/20 09:31:08;;;;;;;9.10;7.72;;;37.80;45.60;;;;;;5133706;27;20024;-71
2023/08/20 09:33:34;;;;;;;10.95;8.02;;;37.80;45.60;;;;;;5134054;27;20439;-71
2023/08/20 09:35:59;;;;;;;9.27;7.38;;;37.60;44.80;;;;;;5132496;27;20475;-72
2023/08/20 09:38:25;;;;;;;9.15;7.95;;;37.20;45.00;;;;;;5115027;27;20031;-71
2023/08/20 09:40:53;;;;;;;10.50;7.95;;;36.90;45.60;;;;;;5113304;28;20439;-71
2023/08/20 09:43:20;;;;;;;9.23;7.82;;;36.60;46.00;;;;;;5112916;28;20020;-71
2023/08/20 09:45:47;;;;;;;12.65;7.70;;;36.40;46.50;;;;;;5112771;28;20408;-70
2023/08/20 09:48:20;;;;;;;8.60;7.80;;;36.40;47.40;;;;;;5112848;28;20027;-70
2023/08/20 09:50:47;;;;;;;8.88;7.90;;;36.20;47.10;;;;;;5113408;28;20113;-70
2023/08/20 09:53:35;;;;;;;11.45;8.18;;;36.20;47.40;;;;;;5094581;28;20031;-70
2023/08/20 09:56:14;;;;;;;9.80;8.88;;;36.20;47.20;;;;;;5112939;28;20024;-70
2023/08/20 09:58:40;;;;;;;8.82;8.00;;;36.00;47.20;;;;;;5112978;28;20103;-70
2023/08/20 10:01:07;;;;;;;9.98;8.43;;;35.70;47.60;;;;;;5112417;28;20054;-70
2023/08/20 10:03:33;;;;;;;9.70;7.88;;;35.60;48.00;;;;;;5114314;28;20059;-70
2023/08/20 10:06:01;;;;;;;10.00;8.55;;;35.70;49.00;;;;;;5117352;28;20078;-70
2023/08/20 10:08:27;;;;;;;9.55;8.70;;;35.60;48.00;;;;;;5117128;28;20023;-70
2023/08/20 10:10:53;;;;;;;9.68;8.10;;;35.30;48.20;;;;;;5117278;28;20122;-70
2023/08/20 10:13:19;;;;;;;11.40;9.00;;;35.20;49.00;;;;;;5116566;28;20095;-70
2023/08/20 10:15:46;;;;;;;9.63;8.48;;;35.20;49.00;;;;;;5117176;28;20040;-70
2023/08/20 10:18:12;;;;;;;11.77;8.73;;;35.10;49.70;;;;;;5116758;28;20107;-70
2023/08/20 10:20:40;;;;;;;12.27;8.48;;;35.00;49.00;;;;;;5117041;28;20047;-71
2023/08/20 10:23:06;;;;;;;8.60;7.80;;;34.80;49.40;;;;;;5116245;28;20479;-70
2023/08/20 10:25:40;;;;;;;9.40;8.18;;;34.80;49.70;;;;;;5116803;28;20027;-71
2023/08/20 10:28:21;;;;;;;11.98;8.23;;;34.90;49.70;;;;;;5116435;28;20032;-71
2023/08/20 10:31:08;;;;;;;;;;;35.10;50.90;;;;;;5117087;28;20379;-70
2023/08/20 10:33:53;;;;;;;10.73;8.35;;;35.20;50.30;;;;;;5116852;28;19904;-71
2023/08/20 10:36:30;;;;;;;9.38;8.48;;;35.30;49.60;;;;;;5116218;28;20489;-71
2023/08/20 10:38:57;;;;;;;9.30;8.43;;;35.40;49.00;;;;;;5117160;28;20024;-71
2023/08/20 10:41:29;;;;;;;8.70;7.90;;;35.40;49.00;;;;;;5116210;28;20028;-71
2023/08/20 10:43:59;;;;;;;8.25;7.45;;;35.30;49.10;;;;;;5116763;28;20076;-69
2023/08/20 10:46:27;;;;;;;8.48;7.25;;;35.10;49.40;;;;;;5116260;28;20073;-71
2023/08/20 10:49:01;;;;;;;8.48;7.60;;;35.10;50.10;;;;;;5129732;27;20031;-71
2023/08/20 10:51:27;;;;;;;8.45;7.70;;;35.00;49.40;;;;;;5136491;27;20530;-71
2023/08/20 10:54:05;;;;;;;8.60;7.70;;;35.00;48.70;;;;;;5137103;27;20160;-71
2023/08/20 10:56:45;;;;;;;7.22;6.50;;;34.90;49.10;;;;;;5136658;27;20126;-71
2023/08/20 10:59:15;;;;;;;8.77;6.15;;;34.80;49.00;;;;;;5136000;27;20543;-71
2023/08/20 11:01:44;;;;;;;7.88;5.57;;;34.80;45.90;;;;;;5137017;27;20078;-71
2023/08/20 11:04:11;;;;;;;7.47;5.13;;;34.60;45.90;;;;;;5136247;27;20376;-72
2023/08/20 11:06:37;;;;;;;6.47;5.00;;;34.80;46.10;;;;;;5136929;27;20027;-70
2023/08/20 11:09:05;;;;;;;5.95;5.40;;;34.70;46.30;;;;;;5136635;27;20026;-69
2023/08/20 11:11:32;;;;;;;4.97;4.57;;;34.80;43.70;;;;;;5136242;27;20416;-70
2023/08/20 11:14:06;;;;;;;7.20;5.45;;;34.90;45.00;;;;;;5136680;27;20027;-70
2023/08/20 11:16:31;;;;;;;5.63;5.03;;;35.00;46.00;;;;;;5135494;27;20023;-70
2023/08/20 11:18:57;;;;;;;4.93;4.40;;;35.10;44.80;;;;;;5136580;27;20139;-71
2023/08/20 11:21:23;;;;;;;7.75;5.13;;;35.10;43.60;;;;;;5136051;27;20038;-70
2023/08/20 11:23:49;;;;;;;4.88;4.38;;;34.90;43.40;;;;;;5135992;27;20027;-70
2023/08/20 11:26:14;;;;;;;6.35;5.22;;;34.90;44.00;;;;;;5135924;27;20084;-71
2023/08/20 11:28:45;;;;;;;7.05;4.38;;;35.00;44.50;;;;;;5136241;27;20103;-70
2023/08/20 11:31:10;;;;;;;5.13;4.63;;;35.10;44.30;;;;;;5135905;27;20092;-70
2023/08/20 11:33:36;;;;;;;8.85;5.18;;;35.20;43.60;;;;;;5136238;27;20027;-70
2023/08/20 11:36:02;;;;;;;9.60;5.00;;;35.00;42.80;;;;;;5136356;27;20027;-70
2023/08/20 11:38:28;;;;;;;9.10;4.30;;;35.10;44.00;;;;;;5135418;27;20527;-71
2023/08/20 11:40:53;;;;;;;4.28;3.88;;;35.10;42.00;;;;;;5136046;27;20031;-70
2023/08/20 11:43:19;;;;;;;6.00;4.10;;;35.00;42.20;;;;;;5123840;27;20074;-70
2023/08/20 11:45:46;;;;;;;4.90;4.00;;;34.90;40.60;;;;;;5115429;28;20043;-71
2023/08/20 11:48:13;;;;;;;6.47;3.70;;;34.70;40.30;;;;;;5114948;28;20024;-71
2023/08/20 11:50:38;;;;;;;6.28;4.00;;;34.70;40.30;;;;;;5115474;28;20052;-71
2023/08/20 11:53:04;;;;;;;5.68;4.10;;;34.70;41.30;;;;;;5115261;28;20019;-71
2023/08/20 11:55:30;;;;;;;10.10;4.28;;;34.70;41.20;;;;;;5114546;28;20083;-71
2023/08/20 11:57:56;;;;;;;7.05;4.15;;;34.60;41.80;;;;;;5114910;28;20091;-70
2023/08/20 12:00:29;;;;;;;6.18;3.95;;;34.70;42.40;;;;;;5114925;28;20022;-71
2023/08/20 12:02:56;;;;;;;4.75;4.13;;;34.60;41.50;;;;;;5114824;28;20597;-70
2023/08/20 12:05:30;;;;;;;4.38;3.63;;;34.70;40.40;;;;;;5114679;28;20031;-70
2023/08/20 12:08:01;;;;;;;5.13;3.88;;;34.60;40.80;;;;;;5115065;28;20026;-70
2023/08/20 12:10:29;;;;;;;7.82;3.95;;;34.70;41.00;;;;;;5114614;28;20047;-70
2023/08/20 12:12:56;;;;;;;6.53;3.78;;;34.60;40.80;;;;;;5115048;28;20073;-70
2023/08/20 12:15:22;;;;;;;7.75;4.20;;;34.50;41.10;;;;;;5114455;28;20038;-70
2023/08/20 12:17:58;;;;;;;3.90;3.55;;;34.60;43.00;;;;;;5114535;28;20020;-70
2023/08/20 12:20:26;;;;;;;4.75;4.22;;;34.60;42.70;;;;;;5114418;28;20023;-70
2023/08/20 12:22:52;;;;;;;5.03;3.97;;;34.60;42.60;;;;;;5114411;28;20027;-70
2023/08/20 12:25:17;;;;;;;5.45;3.90;;;34.60;40.90;;;;;;5113949;28;20087;-70
2023/08/20 12:27:43;;;;;;;5.95;4.00;;;34.60;42.50;;;;;;5113334;28;20039;-71
2023/08/20 12:30:09;;;;;;;4.88;4.15;;;34.60;43.50;;;;;;5096340;28;20028;-71
2023/08/20 12:32:34;;;;;;;6.28;4.57;;;34.60;42.60;;;;;;5114134;28;20036;-71
2023/08/20 12:35:00;;;;;;;4.95;4.05;;;34.60;43.30;;;;;;5114791;28;20032;-71